| Date | Temp | Humidity | Rainfall | Dew Point | Wind Direction | Wind Speed | Wind Pressure | Condition | Visibility |
|---|---|---|---|---|---|---|---|---|---|
| 2025-05-17 09:09:17 | 30 | 73 | 0.0 | 25 | 220 | 3.8 | 1010 | Partly Cloudy (Day) | 20 km |
| 2025-05-17 08:04:17 | 28 | 78 | 0.0 | 24 | 210 | 3.8 | 1010 | Partly Cloudy (Day) | 20 KM |
| 2025-05-17 07:02:00 | 26 | 92 | 0.0 | 24 | 170 | 3.8 | 1010 | Partly Cloudy (Day) | 10 KM |
| 2025-05-17 06:01:49 | 25 | 94 | 0.0 | 24 | 220 | 5.7 | 1009 | Partly Cloudy (Night) | 10 KM |
| 2025-05-17 05:03:18 | 25 | 95 | 0.0 | 24 | 220 | 5.7 | 1009 | Partly Cloudy (Night) | 10 KM |
| 2025-05-17 04:00:33 | 26 | 93 | 0.0 | 25 | 180 | 3.8 | 1009 | Partly Cloudy (Night) | 10 KM |
| 2025-05-17 03:01:51 | 25 | 93 | 0.0 | 24 | 160 | 5.7 | 1009 | Partly Cloudy (Night) | 10 KM |
| 2025-05-17 02:01:13 | 25 | 95 | 0.00 | 25 | 220 | 7.6 | 1010 | Partly Cloudy (Night) | 10KM |
| 2025-05-17 00:59:40 | 26 | 95 | 0.00 | 25 | 210 | 7.6 | 1010 | Partly Cloudy (Night) | 10KM |
| 2025-05-17 00:01:14 | 26 | 96 | 0.00 | 25 | 230 | 5.7 | 1010 | Partly Cloudy (Night) | 10KM |
| 2025-05-16 23:02:20 | 26 | 96 | 0.00 | 25 | 170 | 3.8 | 1010 | Partly Cloudy (Night) | 10KM |
| 2025-05-16 22:00:03 | 26 | 97 | 0.00 | 25 | 110 | 1.9 | 1010 | Partly Cloudy (Night) | 10KM |
| 2025-05-16 20:59:09 | 27 | 94 | 26 | 140 | 5.7 | 1009 | Partly Cloudy (Night) | 10 KM. | |
| 2025-05-16 20:01:39 | 27 | 95 | 26 | 130 | 5.7 | 1009 | Partly Cloudy (Night) | 10 KM | |
| 2025-05-16 18:58:37 | 27 | 94 | 23 | 110 | 5.7 | 1008 | Night Shower | 10 KM | |
| 2025-05-16 18:00:05 | 27 | 93 | 0.0 | 26 | 080 | 5.7 | 1008 | Night Shower | 08 km |
| 2025-05-16 17:01:38 | 30 | 73 | 0.00 | 24 | 180 | 13.3 | 1008 | Shower Day | 10 km |
| 2025-05-16 16:02:22 | 32 | 65 | 0.00 | 24 | 250 | 5.7 | 1007 | Partly Cloudy (Day) | 10 km |
| 2025-05-16 15:05:23 | 30 | 70 | 0.00 | 24 | 270 | 15.2 | 1008 | Partly Cloudy (Day) | 10 km |
| 2025-05-16 14:02:16 | 29 | 78 | 0.0 | 24 | 260 | 17.1 | 1008 | Partly Cloudy (Day) | 10 km |
| 2025-05-16 13:00:28 | 27 | 86 | 0.0 | 25 | 290 | 13.3 | 1010 | Shower Day | 09 km |
| 2025-05-16 12:01:04 | 28 | 88 | 0.00 | 25 | 260 | 13.3 | 1011 | Showers | 9KM |
| 2025-05-16 11:00:37 | 29 | 83 | 0.00 | 25 | 290 | 3.8 | 1011 | Distant showers | 15KM |
| 2025-05-16 10:03:09 | 28 | 84 | 0.0 | 25 | 310 | 3.8 | 1012 | Partly Cloudy (Day) | 20 km |
| 2025-05-16 09:00:58 | 27 | 89 | 0.0 | 25 | 040 | 5.7 | 1011 | Shower Day | 09 km |